createdAt,value
2022-07-29T00:00:06.384Z,4.40
2022-07-29T00:02:53.205Z,4.28
2022-07-29T00:05:20.379Z,4.10
2022-07-29T00:07:47.204Z,4.97
2022-07-29T00:10:14.249Z,4.00
2022-07-29T00:12:41.301Z,4.53
2022-07-29T00:15:08.770Z,4.80
2022-07-29T00:17:35.772Z,3.85
2022-07-29T00:20:03.146Z,3.90
2022-07-29T00:22:30.150Z,3.97
2022-07-29T00:24:57.035Z,4.80
2022-07-29T00:27:24.229Z,3.55
2022-07-29T00:29:51.077Z,4.18
2022-07-29T00:32:18.009Z,4.07
2022-07-29T00:35:03.383Z,4.10
2022-07-29T00:37:30.329Z,3.72
2022-07-29T00:39:57.389Z,3.50
2022-07-29T00:42:24.221Z,3.97
2022-07-29T00:44:51.099Z,3.70
2022-07-29T00:47:18.133Z,4.10
2022-07-29T00:49:45.122Z,3.60
2022-07-29T00:52:12.502Z,3.80
2022-07-29T00:54:43.983Z,2.95
2022-07-29T00:57:12.598Z,3.97
2022-07-29T00:59:40.055Z,3.60
2022-07-29T01:02:07.188Z,4.43
2022-07-29T01:04:34.910Z,4.28
2022-07-29T01:07:03.361Z,3.70
2022-07-29T01:09:35.051Z,3.60
2022-07-29T01:14:41.622Z,4.28
2022-07-29T01:17:37.355Z,3.03
2022-07-29T01:20:31.687Z,2.92
2022-07-29T01:23:07.946Z,2.92
2022-07-29T01:26:02.971Z,2.90
2022-07-29T01:29:08.340Z,3.00
2022-07-29T01:32:06.786Z,2.65
2022-07-29T01:34:40.494Z,2.80
2022-07-29T01:37:19.365Z,2.80
2022-07-29T01:39:48.488Z,2.58
2022-07-29T01:42:25.036Z,2.60
2022-07-29T01:44:58.559Z,3.17
2022-07-29T01:47:32.530Z,2.13
2022-07-29T01:50:07.037Z,3.22
2022-07-29T01:55:17.818Z,2.42
2022-07-29T01:57:47.812Z,2.17
2022-07-29T02:00:15.680Z,2.67
2022-07-29T02:02:45.233Z,2.33
2022-07-29T02:05:15.761Z,2.50
2022-07-29T02:07:44.469Z,2.30
2022-07-29T02:10:13.738Z,2.25
2022-07-29T02:12:43.345Z,2.15
2022-07-29T02:15:17.695Z,2.30
2022-07-29T02:17:51.938Z,2.13
2022-07-29T02:20:19.337Z,2.67
2022-07-29T02:22:48.235Z,2.38
2022-07-29T02:25:16.658Z,2.40
2022-07-29T02:27:50.135Z,2.08
2022-07-29T02:30:18.617Z,2.30
2022-07-29T02:32:47.628Z,2.30
2022-07-29T02:35:16.999Z,2.58
2022-07-29T02:38:06.559Z,2.33
2022-07-29T02:40:36.177Z,2.15
2022-07-29T02:43:06.388Z,2.00
2022-07-29T02:45:34.223Z,2.20
2022-07-29T02:48:06.047Z,2.75
2022-07-29T02:50:38.519Z,2.50
2022-07-29T02:53:21.483Z,2.85
2022-07-29T02:55:56.525Z,2.10
2022-07-29T02:58:31.724Z,2.40
2022-07-29T03:01:15.721Z,2.45
2022-07-29T03:03:47.217Z,2.45
2022-07-29T03:06:37.646Z,2.60
2022-07-29T03:09:06.617Z,3.10
2022-07-29T03:11:42.440Z,2.42
2022-07-29T03:14:20.578Z,2.30
2022-07-29T03:16:49.394Z,2.58
2022-07-29T03:19:17.294Z,2.53
2022-07-29T03:21:44.173Z,2.47
2022-07-29T03:24:11.483Z,2.80
2022-07-29T03:26:38.687Z,2.58
2022-07-29T03:29:05.499Z,2.55
2022-07-29T03:31:33.526Z,2.35
2022-07-29T03:34:00.744Z,2.80
2022-07-29T03:36:27.655Z,2.47
2022-07-29T03:38:55.715Z,2.17
2022-07-29T03:41:23.999Z,2.20
2022-07-29T03:43:53.009Z,2.75
2022-07-29T03:46:24.457Z,2.60
2022-07-29T03:48:57.506Z,2.53
2022-07-29T03:51:33.052Z,2.33
2022-07-29T03:54:09.319Z,2.38
2022-07-29T03:56:47.241Z,2.63
2022-07-29T03:59:16.207Z,2.08
2022-07-29T04:01:44.201Z,2.63
2022-07-29T04:04:11.325Z,2.47
2022-07-29T04:06:43.171Z,2.30
2022-07-29T04:09:11.034Z,2.10
2022-07-29T04:12:01.931Z,2.30
2022-07-29T04:14:27.405Z,2.17
2022-07-29T04:16:54.301Z,2.72
2022-07-29T04:19:21.346Z,2.60
2022-07-29T04:21:48.496Z,2.67
2022-07-29T04:24:15.874Z,2.42
2022-07-29T04:26:43.216Z,2.35
2022-07-29T04:29:10.374Z,1.70
2022-07-29T04:31:37.367Z,2.30
2022-07-29T04:34:05.011Z,2.40
2022-07-29T04:36:32.193Z,2.28
2022-07-29T04:38:59.831Z,2.58
2022-07-29T04:41:33.368Z,1.98
2022-07-29T04:44:07.197Z,2.42
2022-07-29T04:46:35.806Z,2.22
2022-07-29T04:49:04.449Z,2.28
2022-07-29T04:51:31.546Z,1.75
2022-07-29T04:53:58.370Z,1.85
2022-07-29T04:56:25.435Z,1.88
2022-07-29T04:58:52.505Z,1.70
2022-07-29T05:01:19.926Z,2.08
2022-07-29T05:03:47.239Z,1.90
2022-07-29T05:06:14.152Z,2.05
2022-07-29T05:08:42.030Z,1.67
2022-07-29T05:11:12.234Z,1.92
2022-07-29T05:13:46.053Z,2.00
2022-07-29T05:16:14.966Z,1.80
2022-07-29T05:18:43.147Z,1.30
2022-07-29T05:21:10.140Z,1.60
2022-07-29T05:23:37.292Z,1.38
2022-07-29T05:26:04.177Z,1.80
2022-07-29T05:28:35.952Z,2.40
2022-07-29T05:31:03.482Z,1.50
2022-07-29T05:33:34.968Z,1.60
2022-07-29T05:36:06.494Z,1.60
2022-07-29T05:38:37.269Z,1.20
2022-07-29T05:41:06.363Z,1.33
2022-07-29T05:43:33.984Z,1.35
2022-07-29T05:46:01.057Z,1.38
2022-07-29T05:48:28.465Z,1.42
2022-07-29T05:50:55.894Z,1.10
2022-07-29T05:53:23.555Z,1.83
2022-07-29T05:55:51.289Z,1.58
2022-07-29T05:58:18.199Z,1.58
2022-07-29T06:00:45.692Z,1.40
2022-07-29T06:03:12.908Z,1.33
2022-07-29T06:05:39.789Z,1.13
2022-07-29T06:08:08.256Z,1.33
2022-07-29T06:10:38.564Z,1.33
2022-07-29T06:13:05.641Z,1.50
2022-07-29T06:15:33.028Z,1.40
2022-07-29T06:18:01.574Z,1.48
2022-07-29T06:20:31.461Z,1.40
2022-07-29T06:22:59.093Z,0.98
2022-07-29T06:25:26.344Z,1.38
2022-07-29T06:27:53.331Z,1.40
2022-07-29T06:30:20.558Z,1.20
2022-07-29T06:32:48.286Z,1.15
2022-07-29T06:35:39.385Z,1.67
2022-07-29T06:38:04.420Z,1.38
2022-07-29T06:41:03.960Z,1.20
2022-07-29T06:43:50.418Z,1.48
2022-07-29T06:46:20.517Z,1.13
2022-07-29T06:48:51.424Z,1.02
2022-07-29T06:51:22.154Z,1.30
2022-07-29T06:54:01.440Z,1.73
2022-07-29T06:56:38.521Z,0.90
2022-07-29T06:59:08.491Z,1.13
2022-07-29T07:01:40.492Z,1.20
2022-07-29T07:04:10.048Z,1.17
2022-07-29T07:06:37.956Z,1.10
2022-07-29T07:09:05.684Z,0.90
2022-07-29T07:11:33.109Z,1.23
2022-07-29T07:14:03.396Z,0.95
2022-07-29T07:16:42.202Z,1.35
2022-07-29T07:19:09.398Z,1.05
2022-07-29T07:21:36.474Z,1.17
2022-07-29T07:24:03.737Z,1.33
2022-07-29T07:26:30.760Z,1.30
2022-07-29T07:28:57.907Z,1.20
2022-07-29T07:31:25.352Z,1.38
2022-07-29T07:33:54.336Z,1.00
2022-07-29T07:36:21.555Z,1.23
2022-07-29T07:38:48.666Z,1.08
2022-07-29T07:41:15.769Z,1.40
2022-07-29T07:43:42.772Z,1.08
2022-07-29T07:46:09.968Z,1.40
2022-07-29T07:48:37.267Z,1.23
2022-07-29T07:51:04.715Z,1.10
2022-07-29T07:53:31.949Z,1.17
2022-07-29T07:56:10.500Z,1.58
2022-07-29T07:58:38.516Z,0.90
2022-07-29T08:01:05.629Z,1.00
2022-07-29T08:03:32.544Z,0.98
2022-07-29T08:05:59.656Z,1.63
2022-07-29T08:08:26.448Z,1.08
2022-07-29T08:10:53.464Z,0.90
2022-07-29T08:13:22.127Z,1.13
2022-07-29T08:15:58.500Z,1.27
2022-07-29T08:18:27.403Z,0.98
2022-07-29T08:20:54.916Z,1.00
2022-07-29T08:23:23.772Z,0.90
2022-07-29T08:25:52.575Z,0.95
2022-07-29T08:28:21.677Z,1.30
2022-07-29T08:30:53.882Z,1.05
2022-07-29T08:33:20.889Z,1.00
2022-07-29T08:35:48.040Z,0.73
2022-07-29T08:38:15.348Z,1.25
2022-07-29T08:40:42.301Z,1.15
2022-07-29T08:43:09.935Z,1.00
2022-07-29T08:45:48.619Z,1.15
2022-07-29T08:48:21.219Z,1.05
2022-07-29T08:50:50.656Z,0.85
2022-07-29T08:53:19.073Z,1.27
2022-07-29T08:55:48.067Z,0.80
2022-07-29T08:58:15.907Z,1.10
2022-07-29T09:00:56.746Z,0.88
2022-07-29T09:03:28.375Z,0.70
2022-07-29T09:05:55.877Z,1.08
2022-07-29T09:08:22.869Z,0.75
2022-07-29T09:10:50.295Z,0.98
2022-07-29T09:13:17.276Z,0.90
2022-07-29T09:15:45.051Z,1.23
2022-07-29T09:18:19.782Z,0.88
2022-07-29T09:21:17.828Z,1.02
2022-07-29T09:24:12.477Z,0.95
2022-07-29T09:26:46.856Z,0.80
2022-07-29T09:29:16.660Z,0.90
2022-07-29T09:31:52.400Z,0.85
2022-07-29T09:34:27.564Z,1.13
2022-07-29T09:36:56.751Z,1.00
2022-07-29T09:39:47.249Z,1.08
2022-07-29T09:42:15.898Z,0.80
2022-07-29T09:44:51.080Z,0.88
2022-07-29T09:47:19.713Z,1.02
2022-07-29T09:49:54.258Z,1.20
2022-07-29T09:52:21.690Z,0.75
2022-07-29T09:54:49.151Z,0.90
2022-07-29T09:57:31.061Z,0.90
2022-07-29T10:00:12.008Z,0.63
2022-07-29T10:02:40.753Z,0.90
2022-07-29T10:05:24.719Z,0.90
2022-07-29T10:07:56.994Z,0.80
2022-07-29T10:10:28.808Z,1.02
2022-07-29T10:13:01.826Z,0.80
2022-07-29T10:15:39.472Z,1.10
2022-07-29T10:18:07.396Z,1.08
2022-07-29T10:20:35.235Z,0.70
2022-07-29T10:23:02.262Z,0.65
2022-07-29T10:25:29.563Z,0.90
2022-07-29T10:27:58.302Z,0.90
2022-07-29T10:30:27.144Z,0.70
2022-07-29T10:33:15.706Z,0.90
2022-07-29T10:36:01.360Z,1.13
2022-07-29T10:38:28.130Z,1.05
2022-07-29T10:41:43.854Z,0.60
2022-07-29T10:44:19.320Z,0.80
2022-07-29T10:46:51.715Z,0.80
2022-07-29T10:49:25.211Z,0.80
2022-07-29T10:51:57.813Z,0.60
2022-07-29T10:54:34.757Z,0.63
2022-07-29T10:57:25.646Z,1.10
2022-07-29T11:00:17.004Z,1.00
2022-07-29T11:02:46.996Z,1.23
2022-07-29T11:05:20.624Z,0.85
2022-07-29T11:11:29.845Z,0.95
2022-07-29T11:13:57.290Z,0.68
2022-07-29T11:16:25.628Z,1.00
2022-07-29T11:19:11.463Z,0.57
2022-07-29T11:21:55.171Z,0.88
2022-07-29T11:24:33.283Z,0.57
2022-07-29T11:27:14.288Z,1.05
2022-07-29T11:29:58.566Z,1.00
2022-07-29T11:32:37.956Z,0.65
2022-07-29T11:35:17.876Z,0.70
2022-07-29T11:37:52.161Z,0.70
2022-07-29T11:40:23.036Z,0.68
2022-07-29T11:45:47.228Z,0.70
2022-07-29T11:48:29.937Z,0.70
2022-07-29T11:51:00.640Z,0.60
2022-07-29T11:53:28.965Z,0.70
2022-07-29T11:56:00.364Z,0.93
2022-07-29T11:58:29.600Z,0.40
2022-07-29T12:00:58.559Z,0.90
2022-07-29T12:03:34.937Z,0.68
2022-07-29T12:06:15.102Z,0.60
2022-07-29T12:07:01.821Z,0.60
2022-07-29T12:08:44.601Z,0.60
2022-07-29T12:11:20.789Z,0.50
2022-07-29T12:13:50.040Z,0.88
2022-07-29T12:16:26.103Z,0.80
2022-07-29T12:19:02.379Z,0.60
2022-07-29T12:21:53.677Z,1.30
2022-07-29T12:24:26.819Z,0.75
2022-07-29T12:26:57.292Z,0.70
2022-07-29T12:29:34.529Z,1.40
2022-07-29T12:32:05.513Z,0.57
2022-07-29T12:34:33.317Z,0.85
2022-07-29T12:37:00.559Z,1.48
2022-07-29T12:39:29.056Z,0.95
2022-07-29T12:42:03.842Z,1.23
2022-07-29T12:44:51.421Z,0.82
2022-07-29T12:47:19.605Z,0.75
2022-07-29T12:49:47.939Z,0.82
2022-07-29T12:52:29.302Z,0.60
2022-07-29T12:54:56.890Z,0.93
2022-07-29T12:57:24.900Z,0.63
2022-07-29T13:00:13.698Z,1.20
2022-07-29T13:02:42.694Z,0.80
2022-07-29T13:05:11.359Z,0.52
2022-07-29T13:07:54.608Z,0.80
2022-07-29T13:10:24.945Z,0.60
2022-07-29T13:13:10.466Z,0.70
2022-07-29T13:15:43.850Z,1.55
2022-07-29T13:18:32.676Z,0.90
2022-07-29T13:21:13.595Z,0.82
2022-07-29T13:23:41.267Z,0.70
2022-07-29T13:26:17.469Z,1.30
2022-07-29T13:28:44.562Z,0.63
2022-07-29T13:31:11.982Z,0.73
2022-07-29T13:33:38.938Z,0.95
2022-07-29T13:36:06.110Z,0.73
2022-07-29T13:38:33.227Z,0.70
2022-07-29T13:41:00.136Z,0.60
2022-07-29T13:43:27.785Z,0.90
2022-07-29T13:45:54.950Z,0.50
2022-07-29T13:48:22.130Z,1.02
2022-07-29T13:50:49.399Z,0.73
2022-07-29T13:53:17.694Z,0.80
2022-07-29T13:55:45.143Z,0.95
2022-07-29T13:58:12.073Z,0.80
2022-07-29T14:00:39.119Z,0.95
2022-07-29T14:03:07.432Z,0.75
2022-07-29T14:05:34.615Z,0.55
2022-07-29T14:08:01.611Z,0.98
2022-07-29T14:10:28.517Z,0.90
2022-07-29T14:12:56.165Z,0.90
2022-07-29T14:15:24.339Z,0.75
2022-07-29T14:17:51.140Z,0.50
2022-07-29T14:20:18.192Z,0.80
2022-07-29T14:22:45.832Z,0.75
2022-07-29T14:25:15.158Z,0.95
2022-07-29T14:27:45.888Z,0.82
2022-07-29T14:30:13.586Z,0.60
2022-07-29T14:32:40.725Z,0.80
2022-07-29T14:35:09.009Z,0.63
2022-07-29T14:37:39.842Z,0.90
2022-07-29T14:42:34.797Z,0.60
2022-07-29T14:45:01.897Z,0.75
2022-07-29T14:47:28.827Z,0.85
2022-07-29T14:49:55.757Z,0.70
2022-07-29T14:52:22.800Z,0.75
2022-07-29T14:54:50.088Z,1.00
2022-07-29T14:57:17.447Z,0.68
2022-07-29T14:59:44.688Z,0.73
2022-07-29T15:02:11.713Z,0.77
2022-07-29T15:04:40.351Z,0.60
2022-07-29T15:07:07.504Z,0.60
2022-07-29T15:09:36.331Z,0.80
2022-07-29T15:12:08.257Z,0.63
2022-07-29T15:14:35.433Z,0.85
2022-07-29T15:17:02.320Z,0.50
2022-07-29T15:19:31.757Z,0.50
2022-07-29T15:21:59.743Z,0.60
2022-07-29T15:24:27.038Z,0.88
2022-07-29T15:26:54.811Z,0.43
2022-07-29T15:29:22.371Z,0.60
2022-07-29T15:31:49.825Z,0.63
2022-07-29T15:34:16.856Z,0.52
2022-07-29T15:36:52.812Z,1.02
2022-07-29T15:39:22.094Z,0.50
2022-07-29T15:41:49.293Z,0.50
2022-07-29T15:44:16.180Z,0.40
2022-07-29T15:47:02.035Z,0.77
2022-07-29T15:49:47.886Z,0.75
2022-07-29T15:52:25.711Z,0.60
2022-07-29T15:54:57.794Z,1.10
2022-07-29T15:57:25.403Z,0.60
2022-07-29T15:59:52.706Z,0.73
2022-07-29T16:02:20.436Z,0.55
2022-07-29T16:04:47.756Z,0.63
2022-07-29T16:07:15.758Z,0.95
2022-07-29T16:09:45.467Z,0.50
2022-07-29T16:12:17.990Z,0.82
2022-07-29T16:14:45.359Z,0.73
2022-07-29T16:17:14.432Z,0.63
2022-07-29T16:19:43.505Z,0.75
2022-07-29T16:22:10.799Z,0.85
2022-07-29T16:24:38.988Z,0.80
2022-07-29T16:27:06.459Z,0.80
2022-07-29T16:29:33.556Z,0.80
2022-07-29T16:32:01.360Z,0.90
2022-07-29T16:34:28.477Z,0.65
2022-07-29T16:36:55.557Z,0.88
2022-07-29T16:39:22.484Z,0.70
2022-07-29T16:41:49.643Z,0.90
2022-07-29T16:44:16.795Z,0.80
2022-07-29T16:46:45.430Z,1.00
2022-07-29T16:49:14.080Z,0.80
2022-07-29T16:51:48.080Z,0.90
2022-07-29T16:54:15.439Z,0.80
2022-07-29T16:56:42.392Z,0.80
2022-07-29T16:59:09.386Z,0.80
2022-07-29T17:01:36.201Z,1.10
2022-07-29T17:04:08.739Z,1.33
2022-07-29T17:06:40.364Z,0.93
2022-07-29T17:09:09.359Z,1.10
2022-07-29T17:11:52.857Z,0.90
2022-07-29T17:14:28.271Z,0.75
2022-07-29T17:17:00.893Z,1.20
2022-07-29T17:19:31.780Z,0.63
2022-07-29T17:22:07.038Z,0.80
2022-07-29T17:24:38.291Z,0.90
2022-07-29T17:27:06.441Z,0.63
2022-07-29T17:29:34.893Z,1.08
2022-07-29T17:32:01.875Z,0.90
2022-07-29T17:34:29.364Z,0.98
2022-07-29T17:36:57.071Z,0.80
2022-07-29T17:39:24.249Z,0.80
2022-07-29T17:41:51.309Z,0.80
2022-07-29T17:44:18.353Z,1.10
2022-07-29T17:46:45.392Z,0.70
2022-07-29T17:49:12.637Z,0.60
2022-07-29T17:51:39.589Z,0.73
2022-07-29T17:54:06.449Z,1.10
2022-07-29T17:56:33.909Z,1.10
2022-07-29T17:59:03.653Z,1.02
2022-07-29T18:01:30.629Z,0.70
2022-07-29T18:04:00.157Z,1.25
2022-07-29T18:06:27.296Z,1.33
2022-07-29T18:08:54.297Z,1.10
2022-07-29T18:11:22.245Z,1.17
2022-07-29T18:13:49.314Z,2.10
2022-07-29T18:16:16.313Z,1.23
2022-07-29T18:18:46.266Z,1.10
2022-07-29T18:21:13.207Z,1.08
2022-07-29T18:23:40.269Z,1.23
2022-07-29T18:26:07.731Z,1.10
2022-07-29T18:28:35.143Z,1.00
2022-07-29T18:31:02.606Z,1.40
2022-07-29T18:33:30.219Z,1.40
2022-07-29T18:36:06.145Z,0.93
2022-07-29T18:38:41.217Z,1.00
2022-07-29T18:41:08.231Z,1.05
2022-07-29T18:43:35.167Z,1.27
2022-07-29T18:46:02.647Z,1.10
2022-07-29T18:48:29.579Z,1.10
2022-07-29T18:50:56.433Z,1.10
2022-07-29T18:53:23.499Z,1.10
2022-07-29T18:55:50.346Z,1.08
2022-07-29T18:58:17.169Z,1.52
2022-07-29T19:00:44.150Z,1.38
2022-07-29T19:03:11.164Z,1.33
2022-07-29T19:05:38.155Z,1.20
2022-07-29T19:08:06.390Z,1.55
2022-07-29T19:10:33.317Z,1.33
2022-07-29T19:13:00.268Z,1.23
2022-07-29T19:15:27.525Z,1.35
2022-07-29T19:17:59.035Z,1.48
2022-07-29T19:20:28.495Z,1.38
2022-07-29T19:22:55.922Z,1.27
2022-07-29T19:25:23.320Z,1.05
2022-07-29T19:27:50.431Z,1.00
2022-07-29T19:30:17.282Z,0.95
2022-07-29T19:32:44.313Z,1.17
2022-07-29T19:35:30.238Z,1.33
2022-07-29T19:38:00.115Z,1.20
2022-07-29T19:40:28.363Z,2.75
2022-07-29T19:42:56.007Z,1.33
2022-07-29T19:45:24.818Z,1.00
2022-07-29T19:47:52.379Z,0.93
2022-07-29T19:50:19.541Z,1.25
2022-07-29T19:52:47.211Z,1.33
2022-07-29T19:55:15.121Z,1.08
2022-07-29T19:57:42.066Z,1.10
2022-07-29T20:00:12.025Z,0.90
2022-07-29T20:02:40.454Z,1.15
2022-07-29T20:05:08.739Z,0.90
2022-07-29T20:07:36.356Z,1.20
2022-07-29T20:10:04.663Z,1.08
2022-07-29T20:12:32.336Z,0.80
2022-07-29T20:14:59.339Z,1.52
2022-07-29T20:17:27.179Z,1.00
2022-07-29T20:19:54.574Z,1.23
2022-07-29T20:22:22.063Z,1.00
2022-07-29T20:24:49.289Z,1.00
2022-07-29T20:27:16.145Z,0.90
2022-07-29T20:29:43.217Z,0.90
2022-07-29T20:32:12.180Z,1.05
2022-07-29T20:34:41.312Z,0.90
2022-07-29T20:37:13.466Z,0.73
2022-07-29T20:39:42.670Z,1.13
2022-07-29T20:42:09.461Z,1.23
2022-07-29T20:44:36.974Z,0.95
2022-07-29T20:47:04.224Z,1.05
2022-07-29T20:49:31.105Z,1.10
2022-07-29T20:51:58.149Z,1.10
2022-07-29T20:54:25.288Z,0.90
2022-07-29T20:56:52.242Z,0.80
2022-07-29T20:59:19.445Z,0.88
2022-07-29T21:01:46.625Z,1.05
2022-07-29T21:04:13.710Z,1.17
2022-07-29T21:06:40.975Z,1.10
2022-07-29T21:09:08.157Z,1.00
2022-07-29T21:11:44.776Z,1.60
2022-07-29T21:14:31.715Z,1.13
2022-07-29T21:16:58.934Z,1.00
2022-07-29T21:19:26.343Z,1.00
2022-07-29T21:21:53.707Z,0.85
2022-07-29T21:24:20.770Z,1.25
2022-07-29T21:27:04.959Z,1.10
2022-07-29T21:29:34.627Z,0.90
2022-07-29T21:32:01.653Z,1.40
2022-07-29T21:34:28.526Z,1.13
2022-07-29T21:36:55.595Z,1.02
2022-07-29T21:39:22.692Z,1.00
2022-07-29T21:41:49.659Z,1.10
2022-07-29T21:44:16.613Z,1.02
2022-07-29T21:46:43.854Z,1.05
2022-07-29T21:49:10.781Z,1.10
2022-07-29T21:51:37.832Z,0.90
2022-07-29T21:54:04.883Z,1.20
2022-07-29T21:56:33.417Z,1.00
2022-07-29T21:59:00.732Z,1.20
2022-07-29T22:01:27.869Z,1.00
2022-07-29T22:03:54.804Z,1.08
2022-07-29T22:06:21.818Z,1.15
2022-07-29T22:08:48.856Z,1.10
2022-07-29T22:11:15.860Z,1.00
2022-07-29T22:13:42.706Z,0.90
2022-07-29T22:16:10.294Z,1.10
2022-07-29T22:18:37.269Z,0.95
2022-07-29T22:21:04.523Z,0.90
2022-07-29T22:23:31.623Z,1.30
2022-07-29T22:25:58.502Z,1.10
2022-07-29T22:28:25.349Z,1.30
2022-07-29T22:30:52.412Z,1.20
2022-07-29T22:33:19.212Z,1.00
2022-07-29T22:35:48.923Z,1.30
2022-07-29T22:38:18.171Z,1.40
2022-07-29T22:40:45.391Z,1.38
2022-07-29T22:43:12.399Z,1.20
2022-07-29T22:45:39.649Z,1.10
2022-07-29T22:48:06.615Z,0.82
2022-07-29T22:50:33.915Z,0.98
2022-07-29T22:53:00.973Z,0.98
2022-07-29T22:55:27.869Z,1.27
2022-07-29T22:57:54.703Z,1.45
2022-07-29T23:00:21.789Z,1.25
2022-07-29T23:02:48.594Z,1.98
2022-07-29T23:05:16.123Z,1.20
2022-07-29T23:07:43.522Z,0.90
2022-07-29T23:10:10.493Z,0.98
2022-07-29T23:12:37.580Z,1.10
2022-07-29T23:15:05.994Z,1.35
2022-07-29T23:17:36.633Z,1.13
2022-07-29T23:20:09.751Z,1.10
2022-07-29T23:22:37.155Z,1.40
2022-07-29T23:25:04.962Z,1.25
2022-07-29T23:27:31.939Z,1.10
2022-07-29T23:29:59.130Z,1.25
2022-07-29T23:32:26.015Z,1.30
2022-07-29T23:34:52.837Z,1.30
2022-07-29T23:37:19.956Z,1.00
2022-07-29T23:39:46.871Z,1.10
2022-07-29T23:42:13.962Z,1.25
2022-07-29T23:44:41.007Z,1.20
2022-07-29T23:47:07.798Z,0.93
2022-07-29T23:49:34.617Z,1.08
2022-07-29T23:52:01.881Z,1.10
2022-07-29T23:54:28.748Z,1.10
2022-07-29T23:56:58.026Z,1.52
2022-07-29T23:59:25.459Z,1.40
